sensor_id;sensor_type;location;lat;lon;timestamp;temperature;humidity
76787;DHT22;65739;51.482;5.702;2023-05-16T00:01:44;10.50;99.90
76787;DHT22;65739;51.482;5.702;2023-05-16T00:04:10;10.50;99.90
76787;DHT22;65739;51.482;5.702;2023-05-16T00:06:35;10.50;99.90
76787;DHT22;65739;51.482;5.702;2023-05-16T00:09:01;10.40;99.90
76787;DHT22;65739;51.482;5.702;2023-05-16T00:11:27;10.30;99.90
76787;DHT22;65739;51.482;5.702;2023-05-16T00:13:52;10.30;99.90
76787;DHT22;65739;51.482;5.702;2023-05-16T00:16:18;10.30;99.90
76787;DHT22;65739;51.482;5.702;2023-05-16T00:18:46;10.20;99.90
76787;DHT22;65739;51.482;5.702;2023-05-16T00:21:11;10.10;99.90
76787;DHT22;65739;51.482;5.702;2023-05-16T00:23:38;10.00;99.90
76787;DHT22;65739;51.482;5.702;2023-05-16T00:26:03;10.00;99.90
76787;DHT22;65739;51.482;5.702;2023-05-16T00:28:29;10.00;99.90
76787;DHT22;65739;51.482;5.702;2023-05-16T00:30:54;10.00;99.90
76787;DHT22;65739;51.482;5.702;2023-05-16T00:33:20;10.10;99.90
76787;DHT22;65739;51.482;5.702;2023-05-16T00:35:45;10.10;99.90
76787;DHT22;65739;51.482;5.702;2023-05-16T00:38:11;10.10;99.90
76787;DHT22;65739;51.482;5.702;2023-05-16T00:40:37;10.10;99.90
76787;DHT22;65739;51.482;5.702;2023-05-16T00:43:03;10.00;99.90
76787;DHT22;65739;51.482;5.702;2023-05-16T00:45:28;10.00;99.90
76787;DHT22;65739;51.482;5.702;2023-05-16T00:47:54;10.10;99.90
76787;DHT22;65739;51.482;5.702;2023-05-16T00:50:19;10.00;99.90
76787;DHT22;65739;51.482;5.702;2023-05-16T00:52:45;10.00;99.90
76787;DHT22;65739;51.482;5.702;2023-05-16T00:55:11;10.00;99.90
76787;DHT22;65739;51.482;5.702;2023-05-16T00:57:37;10.00;99.90
76787;DHT22;65739;51.482;5.702;2023-05-16T01:00:04;9.90;99.90
76787;DHT22;65739;51.482;5.702;2023-05-16T01:02:31;10.00;99.90
76787;DHT22;65739;51.482;5.702;2023-05-16T01:04:57;10.00;99.90
76787;DHT22;65739;51.482;5.702;2023-05-16T01:07:22;10.00;99.90
76787;DHT22;65739;51.482;5.702;2023-05-16T01:09:48;10.00;99.90
76787;DHT22;65739;51.482;5.702;2023-05-16T01:15:08;10.10;99.90
76787;DHT22;65739;51.482;5.702;2023-05-16T01:28:17;9.80;99.90
76787;DHT22;65739;51.482;5.702;2023-05-16T01:30:43;9.80;99.90
76787;DHT22;65739;51.482;5.702;2023-05-16T01:33:09;9.70;99.90
76787;DHT22;65739;51.482;5.702;2023-05-16T01:35:42;9.60;99.90
76787;DHT22;65739;51.482;5.702;2023-05-16T01:38:10;9.50;99.90
76787;DHT22;65739;51.482;5.702;2023-05-16T01:43:37;9.30;99.90
76787;DHT22;65739;51.482;5.702;2023-05-16T01:46:09;9.30;99.90
76787;DHT22;65739;51.482;5.702;2023-05-16T01:48:48;9.20;99.90
76787;DHT22;65739;51.482;5.702;2023-05-16T01:51:16;9.20;99.90
76787;DHT22;65739;51.482;5.702;2023-05-16T01:53:42;9.10;99.90
76787;DHT22;65739;51.482;5.702;2023-05-16T01:56:14;8.90;99.90
76787;DHT22;65739;51.482;5.702;2023-05-16T01:58:40;8.90;99.90
76787;DHT22;65739;51.482;5.702;2023-05-16T02:01:06;8.80;99.90
76787;DHT22;65739;51.482;5.702;2023-05-16T02:03:32;8.70;99.90
76787;DHT22;65739;51.482;5.702;2023-05-16T02:05:58;8.60;99.90
76787;DHT22;65739;51.482;5.702;2023-05-16T02:08:24;8.50;99.90
76787;DHT22;65739;51.482;5.702;2023-05-16T02:10:51;8.60;99.90
76787;DHT22;65739;51.482;5.702;2023-05-16T02:13:17;8.50;99.90
76787;DHT22;65739;51.482;5.702;2023-05-16T02:15:42;8.40;99.90
76787;DHT22;65739;51.482;5.702;2023-05-16T02:18:08;8.40;99.90
76787;DHT22;65739;51.482;5.702;2023-05-16T02:20:34;8.30;99.90
76787;DHT22;65739;51.482;5.702;2023-05-16T02:23:00;8.30;99.90
76787;DHT22;65739;51.482;5.702;2023-05-16T02:25:27;8.20;99.90
76787;DHT22;65739;51.482;5.702;2023-05-16T02:27:53;8.10;99.90
76787;DHT22;65739;51.482;5.702;2023-05-16T02:30:18;8.10;99.90
76787;DHT22;65739;51.482;5.702;2023-05-16T02:32:44;8.10;99.90
76787;DHT22;65739;51.482;5.702;2023-05-16T02:35:10;8.10;99.90
76787;DHT22;65739;51.482;5.702;2023-05-16T02:37:36;8.00;99.90
76787;DHT22;65739;51.482;5.702;2023-05-16T02:40:02;7.90;99.90
76787;DHT22;65739;51.482;5.702;2023-05-16T02:42:30;7.90;99.90
76787;DHT22;65739;51.482;5.702;2023-05-16T02:44:56;7.80;99.90
76787;DHT22;65739;51.482;5.702;2023-05-16T02:47:22;7.80;99.90
76787;DHT22;65739;51.482;5.702;2023-05-16T02:49:47;7.80;99.90
76787;DHT22;65739;51.482;5.702;2023-05-16T02:52:13;7.70;99.90
76787;DHT22;65739;51.482;5.702;2023-05-16T02:54:39;7.70;99.90
76787;DHT22;65739;51.482;5.702;2023-05-16T02:57:04;7.70;99.90
76787;DHT22;65739;51.482;5.702;2023-05-16T02:59:30;7.70;99.90
76787;DHT22;65739;51.482;5.702;2023-05-16T03:01:56;7.70;99.90
76787;DHT22;65739;51.482;5.702;2023-05-16T03:04:21;7.70;99.90
76787;DHT22;65739;51.482;5.702;2023-05-16T03:06:48;7.80;99.90
76787;DHT22;65739;51.482;5.702;2023-05-16T03:09:15;7.90;99.90
76787;DHT22;65739;51.482;5.702;2023-05-16T03:11:41;7.80;99.90
76787;DHT22;65739;51.482;5.702;2023-05-16T03:14:06;7.70;99.90
76787;DHT22;65739;51.482;5.702;2023-05-16T03:16:32;7.80;99.90
76787;DHT22;65739;51.482;5.702;2023-05-16T03:18:58;7.80;99.90
76787;DHT22;65739;51.482;5.702;2023-05-16T03:21:23;7.80;99.90
76787;DHT22;65739;51.482;5.702;2023-05-16T03:23:49;7.80;99.90
76787;DHT22;65739;51.482;5.702;2023-05-16T03:26:15;7.90;99.90
76787;DHT22;65739;51.482;5.702;2023-05-16T03:28:40;8.00;99.90
76787;DHT22;65739;51.482;5.702;2023-05-16T03:31:06;8.00;99.90
76787;DHT22;65739;51.482;5.702;2023-05-16T03:33:31;8.10;99.90
76787;DHT22;65739;51.482;5.702;2023-05-16T03:35:57;8.10;99.90
76787;DHT22;65739;51.482;5.702;2023-05-16T03:38:23;8.20;99.90
76787;DHT22;65739;51.482;5.702;2023-05-16T03:40:48;8.20;99.90
76787;DHT22;65739;51.482;5.702;2023-05-16T03:43:14;8.20;99.90
76787;DHT22;65739;51.482;5.702;2023-05-16T03:45:39;8.20;99.90
76787;DHT22;65739;51.482;5.702;2023-05-16T03:48:05;8.20;99.90
76787;DHT22;65739;51.482;5.702;2023-05-16T03:50:30;8.20;99.90
76787;DHT22;65739;51.482;5.702;2023-05-16T03:52:56;8.20;99.90
76787;DHT22;65739;51.482;5.702;2023-05-16T03:55:21;8.20;99.90
76787;DHT22;65739;51.482;5.702;2023-05-16T03:57:47;8.10;99.90
76787;DHT22;65739;51.482;5.702;2023-05-16T04:00:14;8.00;99.90
76787;DHT22;65739;51.482;5.702;2023-05-16T04:02:40;8.10;99.90
76787;DHT22;65739;51.482;5.702;2023-05-16T04:05:09;8.00;99.90
76787;DHT22;65739;51.482;5.702;2023-05-16T04:07:36;8.00;99.90
76787;DHT22;65739;51.482;5.702;2023-05-16T04:10:05;7.80;99.90
76787;DHT22;65739;51.482;5.702;2023-05-16T04:12:31;7.80;99.90
76787;DHT22;65739;51.482;5.702;2023-05-16T04:14:56;7.70;99.90
76787;DHT22;65739;51.482;5.702;2023-05-16T04:17:22;7.70;99.90
76787;DHT22;65739;51.482;5.702;2023-05-16T04:19:47;7.60;99.90
76787;DHT22;65739;51.482;5.702;2023-05-16T04:22:13;7.60;99.90
76787;DHT22;65739;51.482;5.702;2023-05-16T04:24:38;7.60;99.90
76787;DHT22;65739;51.482;5.702;2023-05-16T04:27:04;7.60;99.90
76787;DHT22;65739;51.482;5.702;2023-05-16T04:29:33;7.60;99.90
76787;DHT22;65739;51.482;5.702;2023-05-16T04:31:59;7.60;99.90
76787;DHT22;65739;51.482;5.702;2023-05-16T04:34:25;7.50;99.90
76787;DHT22;65739;51.482;5.702;2023-05-16T04:36:55;7.50;99.90
76787;DHT22;65739;51.482;5.702;2023-05-16T04:39:21;7.50;99.90
76787;DHT22;65739;51.482;5.702;2023-05-16T04:41:47;7.50;99.90
76787;DHT22;65739;51.482;5.702;2023-05-16T04:44:12;7.50;99.90
76787;DHT22;65739;51.482;5.702;2023-05-16T04:46:38;7.50;99.90
76787;DHT22;65739;51.482;5.702;2023-05-16T04:49:04;7.50;99.90
76787;DHT22;65739;51.482;5.702;2023-05-16T04:51:29;7.50;99.90
76787;DHT22;65739;51.482;5.702;2023-05-16T04:53:57;7.50;99.90
76787;DHT22;65739;51.482;5.702;2023-05-16T04:56:22;7.60;99.90
76787;DHT22;65739;51.482;5.702;2023-05-16T04:58:48;7.60;99.90
76787;DHT22;65739;51.482;5.702;2023-05-16T05:01:13;7.70;99.90
76787;DHT22;65739;51.482;5.702;2023-05-16T05:03:38;7.70;99.90
76787;DHT22;65739;51.482;5.702;2023-05-16T05:06:04;7.80;99.90
76787;DHT22;65739;51.482;5.702;2023-05-16T05:08:30;7.90;99.90
76787;DHT22;65739;51.482;5.702;2023-05-16T05:10:55;7.90;99.90
76787;DHT22;65739;51.482;5.702;2023-05-16T05:13:21;8.00;99.90
76787;DHT22;65739;51.482;5.702;2023-05-16T05:15:47;8.10;99.90
76787;DHT22;65739;51.482;5.702;2023-05-16T05:18:14;8.10;99.90
76787;DHT22;65739;51.482;5.702;2023-05-16T05:20:40;8.20;99.90
76787;DHT22;65739;51.482;5.702;2023-05-16T05:23:06;8.30;99.90
76787;DHT22;65739;51.482;5.702;2023-05-16T05:25:31;8.40;99.90
76787;DHT22;65739;51.482;5.702;2023-05-16T05:27:58;8.50;99.90
76787;DHT22;65739;51.482;5.702;2023-05-16T05:30:23;8.60;99.90
76787;DHT22;65739;51.482;5.702;2023-05-16T05:32:49;8.70;99.90
76787;DHT22;65739;51.482;5.702;2023-05-16T05:35:14;8.80;99.90
76787;DHT22;65739;51.482;5.702;2023-05-16T05:37:40;8.90;99.90
76787;DHT22;65739;51.482;5.702;2023-05-16T05:40:06;9.10;99.90
76787;DHT22;65739;51.482;5.702;2023-05-16T05:42:32;9.10;99.90
76787;DHT22;65739;51.482;5.702;2023-05-16T05:44:58;9.30;99.90
76787;DHT22;65739;51.482;5.702;2023-05-16T05:47:23;9.40;99.90
76787;DHT22;65739;51.482;5.702;2023-05-16T05:49:49;9.40;99.90
76787;DHT22;65739;51.482;5.702;2023-05-16T05:52:15;9.60;99.90
76787;DHT22;65739;51.482;5.702;2023-05-16T05:54:40;9.60;99.90
76787;DHT22;65739;51.482;5.702;2023-05-16T05:57:06;9.80;99.90
76787;DHT22;65739;51.482;5.702;2023-05-16T05:59:31;9.80;99.90
76787;DHT22;65739;51.482;5.702;2023-05-16T06:01:57;9.90;99.90
76787;DHT22;65739;51.482;5.702;2023-05-16T06:04:23;10.00;99.90
76787;DHT22;65739;51.482;5.702;2023-05-16T06:06:49;10.10;99.90
76787;DHT22;65739;51.482;5.702;2023-05-16T06:09:14;10.10;99.90
76787;DHT22;65739;51.482;5.702;2023-05-16T06:11:41;10.20;99.90
76787;DHT22;65739;51.482;5.702;2023-05-16T06:14:07;10.20;99.90
76787;DHT22;65739;51.482;5.702;2023-05-16T06:16:33;10.40;99.90
76787;DHT22;65739;51.482;5.702;2023-05-16T06:18:59;10.40;99.90
76787;DHT22;65739;51.482;5.702;2023-05-16T06:21:24;10.40;99.90
76787;DHT22;65739;51.482;5.702;2023-05-16T06:23:50;10.40;99.90
76787;DHT22;65739;51.482;5.702;2023-05-16T06:26:16;10.50;99.90
76787;DHT22;65739;51.482;5.702;2023-05-16T06:28:41;10.50;99.90
76787;DHT22;65739;51.482;5.702;2023-05-16T06:31:07;10.50;99.90
76787;DHT22;65739;51.482;5.702;2023-05-16T06:33:32;10.50;99.90
76787;DHT22;65739;51.482;5.702;2023-05-16T06:35:58;10.50;99.90
76787;DHT22;65739;51.482;5.702;2023-05-16T06:38:24;10.60;99.90
76787;DHT22;65739;51.482;5.702;2023-05-16T06:40:49;10.60;99.90
76787;DHT22;65739;51.482;5.702;2023-05-16T06:43:15;10.60;99.90
76787;DHT22;65739;51.482;5.702;2023-05-16T06:45:40;10.70;99.90
76787;DHT22;65739;51.482;5.702;2023-05-16T06:48:07;10.70;99.90
76787;DHT22;65739;51.482;5.702;2023-05-16T06:50:32;10.90;99.90
76787;DHT22;65739;51.482;5.702;2023-05-16T06:53:00;11.20;99.90
76787;DHT22;65739;51.482;5.702;2023-05-16T06:55:25;11.50;99.90
76787;DHT22;65739;51.482;5.702;2023-05-16T06:57:51;11.50;99.90
76787;DHT22;65739;51.482;5.702;2023-05-16T07:00:17;11.40;99.90
76787;DHT22;65739;51.482;5.702;2023-05-16T07:02:42;11.30;99.90
76787;DHT22;65739;51.482;5.702;2023-05-16T07:05:08;11.40;99.90
76787;DHT22;65739;51.482;5.702;2023-05-16T07:07:34;11.50;99.90
76787;DHT22;65739;51.482;5.702;2023-05-16T07:10:00;11.70;99.90
76787;DHT22;65739;51.482;5.702;2023-05-16T07:12:25;11.90;99.90
76787;DHT22;65739;51.482;5.702;2023-05-16T07:14:51;11.90;99.90
76787;DHT22;65739;51.482;5.702;2023-05-16T07:17:16;11.80;99.90
76787;DHT22;65739;51.482;5.702;2023-05-16T07:19:42;11.70;99.90
76787;DHT22;65739;51.482;5.702;2023-05-16T07:22:07;11.70;99.90
76787;DHT22;65739;51.482;5.702;2023-05-16T07:24:33;11.70;99.90
76787;DHT22;65739;51.482;5.702;2023-05-16T07:26:58;11.90;99.90
76787;DHT22;65739;51.482;5.702;2023-05-16T07:29:24;12.00;99.90
76787;DHT22;65739;51.482;5.702;2023-05-16T07:31:50;12.00;99.90
76787;DHT22;65739;51.482;5.702;2023-05-16T07:34:15;12.00;99.90
76787;DHT22;65739;51.482;5.702;2023-05-16T07:36:41;12.30;99.90
76787;DHT22;65739;51.482;5.702;2023-05-16T07:39:07;12.50;99.90
76787;DHT22;65739;51.482;5.702;2023-05-16T07:41:32;12.60;99.90
76787;DHT22;65739;51.482;5.702;2023-05-16T07:43:58;12.60;99.90
76787;DHT22;65739;51.482;5.702;2023-05-16T07:46:23;12.70;99.90
76787;DHT22;65739;51.482;5.702;2023-05-16T07:48:49;12.70;99.90
76787;DHT22;65739;51.482;5.702;2023-05-16T07:51:15;12.80;99.90
76787;DHT22;65739;51.482;5.702;2023-05-16T07:53:40;13.10;99.90
76787;DHT22;65739;51.482;5.702;2023-05-16T07:56:06;13.50;99.90
76787;DHT22;65739;51.482;5.702;2023-05-16T07:58:32;13.50;99.90
76787;DHT22;65739;51.482;5.702;2023-05-16T08:00:58;13.70;99.90
76787;DHT22;65739;51.482;5.702;2023-05-16T08:11:47;14.40;99.90
76787;DHT22;65739;51.482;5.702;2023-05-16T08:14:12;13.60;99.90
76787;DHT22;65739;51.482;5.702;2023-05-16T08:16:38;13.60;99.90
76787;DHT22;65739;51.482;5.702;2023-05-16T08:19:03;13.60;99.90
76787;DHT22;65739;51.482;5.702;2023-05-16T08:21:29;13.70;99.90
76787;DHT22;65739;51.482;5.702;2023-05-16T08:23:56;14.00;99.90
76787;DHT22;65739;51.482;5.702;2023-05-16T08:26:21;13.90;99.90
76787;DHT22;65739;51.482;5.702;2023-05-16T08:28:47;13.70;99.90
76787;DHT22;65739;51.482;5.702;2023-05-16T08:31:13;13.60;99.90
76787;DHT22;65739;51.482;5.702;2023-05-16T08:33:38;13.40;99.90
76787;DHT22;65739;51.482;5.702;2023-05-16T08:36:04;13.80;99.90
76787;DHT22;65739;51.482;5.702;2023-05-16T08:38:30;14.60;99.90
76787;DHT22;65739;51.482;5.702;2023-05-16T08:40:56;15.20;99.90
76787;DHT22;65739;51.482;5.702;2023-05-16T08:43:21;15.20;99.90
76787;DHT22;65739;51.482;5.702;2023-05-16T08:45:47;14.90;99.90
76787;DHT22;65739;51.482;5.702;2023-05-16T08:48:14;14.60;99.90
76787;DHT22;65739;51.482;5.702;2023-05-16T08:50:41;14.30;99.90
76787;DHT22;65739;51.482;5.702;2023-05-16T08:53:09;14.10;99.90
76787;DHT22;65739;51.482;5.702;2023-05-16T08:55:37;14.40;99.90
76787;DHT22;65739;51.482;5.702;2023-05-16T08:58:03;14.80;99.90
76787;DHT22;65739;51.482;5.702;2023-05-16T09:00:29;15.10;99.90
76787;DHT22;65739;51.482;5.702;2023-05-16T09:02:55;15.30;99.90
76787;DHT22;65739;51.482;5.702;2023-05-16T09:05:22;15.60;99.90
76787;DHT22;65739;51.482;5.702;2023-05-16T09:07:48;15.90;99.90
76787;DHT22;65739;51.482;5.702;2023-05-16T09:10:14;16.40;99.90
76787;DHT22;65739;51.482;5.702;2023-05-16T09:12:41;16.70;99.90
76787;DHT22;65739;51.482;5.702;2023-05-16T09:15:07;16.40;99.90
76787;DHT22;65739;51.482;5.702;2023-05-16T09:17:52;16.00;99.90
76787;DHT22;65739;51.482;5.702;2023-05-16T09:20:18;15.20;99.90
76787;DHT22;65739;51.482;5.702;2023-05-16T09:22:58;14.80;99.90
76787;DHT22;65739;51.482;5.702;2023-05-16T09:25:25;14.60;99.90
76787;DHT22;65739;51.482;5.702;2023-05-16T09:27:55;14.80;99.90
76787;DHT22;65739;51.482;5.702;2023-05-16T09:30:22;14.90;99.90
76787;DHT22;65739;51.482;5.702;2023-05-16T09:32:51;14.80;99.90
76787;DHT22;65739;51.482;5.702;2023-05-16T09:35:19;14.90;99.90
76787;DHT22;65739;51.482;5.702;2023-05-16T09:37:48;15.40;99.90
76787;DHT22;65739;51.482;5.702;2023-05-16T09:40:15;15.60;99.90
76787;DHT22;65739;51.482;5.702;2023-05-16T09:42:45;16.30;99.90
76787;DHT22;65739;51.482;5.702;2023-05-16T09:45:12;16.80;99.90
76787;DHT22;65739;51.482;5.702;2023-05-16T09:47:38;16.80;99.90
76787;DHT22;65739;51.482;5.702;2023-05-16T09:50:12;17.00;99.90
76787;DHT22;65739;51.482;5.702;2023-05-16T09:52:38;16.90;99.90
76787;DHT22;65739;51.482;5.702;2023-05-16T09:55:08;17.10;99.90
76787;DHT22;65739;51.482;5.702;2023-05-16T09:57:37;17.40;99.90
76787;DHT22;65739;51.482;5.702;2023-05-16T10:00:11;17.20;99.90
76787;DHT22;65739;51.482;5.702;2023-05-16T10:02:37;16.80;99.90
76787;DHT22;65739;51.482;5.702;2023-05-16T10:05:06;17.10;99.90
76787;DHT22;65739;51.482;5.702;2023-05-16T10:07:32;17.50;99.90
76787;DHT22;65739;51.482;5.702;2023-05-16T10:10:08;17.40;99.90
76787;DHT22;65739;51.482;5.702;2023-05-16T10:12:35;16.40;99.90
76787;DHT22;65739;51.482;5.702;2023-05-16T10:15:04;15.70;99.90
76787;DHT22;65739;51.482;5.702;2023-05-16T10:17:32;15.40;99.90
76787;DHT22;65739;51.482;5.702;2023-05-16T10:20:01;15.00;99.90
76787;DHT22;65739;51.482;5.702;2023-05-16T10:22:33;14.90;99.90
76787;DHT22;65739;51.482;5.702;2023-05-16T10:25:16;14.80;99.90
76787;DHT22;65739;51.482;5.702;2023-05-16T10:27:45;14.80;99.90
76787;DHT22;65739;51.482;5.702;2023-05-16T10:30:21;14.50;99.90
76787;DHT22;65739;51.482;5.702;2023-05-16T10:32:50;14.30;99.90
76787;DHT22;65739;51.482;5.702;2023-05-16T10:35:16;14.80;99.90
76787;DHT22;65739;51.482;5.702;2023-05-16T10:37:42;15.70;99.90
76787;DHT22;65739;51.482;5.702;2023-05-16T10:40:09;16.20;99.90
76787;DHT22;65739;51.482;5.702;2023-05-16T10:42:35;16.60;99.90
76787;DHT22;65739;51.482;5.702;2023-05-16T10:45:17;16.90;99.90
76787;DHT22;65739;51.482;5.702;2023-05-16T10:48:03;17.50;99.90
76787;DHT22;65739;51.482;5.702;2023-05-16T10:50:34;18.00;99.90
76787;DHT22;65739;51.482;5.702;2023-05-16T10:53:28;18.50;99.90
76787;DHT22;65739;51.482;5.702;2023-05-16T10:58:39;18.60;99.90
76787;DHT22;65739;51.482;5.702;2023-05-16T11:01:34;17.60;99.90
76787;DHT22;65739;51.482;5.702;2023-05-16T11:04:01;16.90;99.90
76787;DHT22;65739;51.482;5.702;2023-05-16T11:06:29;16.70;99.90
76787;DHT22;65739;51.482;5.702;2023-05-16T11:11:51;17.00;99.90
76787;DHT22;65739;51.482;5.702;2023-05-16T11:14:21;16.50;99.90
76787;DHT22;65739;51.482;5.702;2023-05-16T11:17:10;16.20;99.90
76787;DHT22;65739;51.482;5.702;2023-05-16T11:19:40;16.20;99.90
76787;DHT22;65739;51.482;5.702;2023-05-16T11:27:41;18.30;99.90
76787;DHT22;65739;51.482;5.702;2023-05-16T11:30:15;17.80;99.90
76787;DHT22;65739;51.482;5.702;2023-05-16T11:32:46;17.80;99.90
76787;DHT22;65739;51.482;5.702;2023-05-16T11:35:15;18.50;99.90
76787;DHT22;65739;51.482;5.702;2023-05-16T11:37:42;18.50;99.90
76787;DHT22;65739;51.482;5.702;2023-05-16T11:40:09;19.10;99.90
76787;DHT22;65739;51.482;5.702;2023-05-16T11:42:40;18.40;99.90
76787;DHT22;65739;51.482;5.702;2023-05-16T11:47:32;17.60;99.90
76787;DHT22;65739;51.482;5.702;2023-05-16T11:49:58;17.00;99.90
76787;DHT22;65739;51.482;5.702;2023-05-16T11:52:23;17.00;99.90
76787;DHT22;65739;51.482;5.702;2023-05-16T11:54:50;17.10;99.90
76787;DHT22;65739;51.482;5.702;2023-05-16T11:57:16;16.90;99.90
76787;DHT22;65739;51.482;5.702;2023-05-16T11:59:42;16.80;99.90
76787;DHT22;65739;51.482;5.702;2023-05-16T12:02:08;17.30;99.90
76787;DHT22;65739;51.482;5.702;2023-05-16T12:04:35;17.80;99.90
76787;DHT22;65739;51.482;5.702;2023-05-16T12:07:02;18.00;99.90
76787;DHT22;65739;51.482;5.702;2023-05-16T12:09:29;18.40;99.90
76787;DHT22;65739;51.482;5.702;2023-05-16T12:11:55;18.30;99.90
76787;DHT22;65739;51.482;5.702;2023-05-16T12:14:21;18.60;99.90
76787;DHT22;65739;51.482;5.702;2023-05-16T12:16:47;18.20;99.90
76787;DHT22;65739;51.482;5.702;2023-05-16T12:19:14;17.80;99.90
76787;DHT22;65739;51.482;5.702;2023-05-16T12:21:40;17.80;99.90
76787;DHT22;65739;51.482;5.702;2023-05-16T12:24:09;18.00;99.90
76787;DHT22;65739;51.482;5.702;2023-05-16T12:26:39;17.60;99.90
76787;DHT22;65739;51.482;5.702;2023-05-16T12:29:05;17.60;99.90
76787;DHT22;65739;51.482;5.702;2023-05-16T12:31:39;17.30;99.90
76787;DHT22;65739;51.482;5.702;2023-05-16T12:34:16;16.90;99.90
76787;DHT22;65739;51.482;5.702;2023-05-16T12:36:42;16.60;99.90
76787;DHT22;65739;51.482;5.702;2023-05-16T12:39:11;16.40;99.90
76787;DHT22;65739;51.482;5.702;2023-05-16T12:41:40;16.40;99.90
76787;DHT22;65739;51.482;5.702;2023-05-16T12:44:11;16.20;99.90
76787;DHT22;65739;51.482;5.702;2023-05-16T12:46:45;16.50;99.90
76787;DHT22;65739;51.482;5.702;2023-05-16T12:49:13;17.60;99.90
76787;DHT22;65739;51.482;5.702;2023-05-16T12:51:39;18.40;99.90
76787;DHT22;65739;51.482;5.702;2023-05-16T12:54:10;18.20;99.90
76787;DHT22;65739;51.482;5.702;2023-05-16T12:56:37;17.30;99.90
76787;DHT22;65739;51.482;5.702;2023-05-16T12:59:02;17.00;99.90
76787;DHT22;65739;51.482;5.702;2023-05-16T13:01:28;16.80;99.90
76787;DHT22;65739;51.482;5.702;2023-05-16T13:03:54;16.40;99.90
76787;DHT22;65739;51.482;5.702;2023-05-16T13:06:19;16.20;99.90
76787;DHT22;65739;51.482;5.702;2023-05-16T13:08:45;16.10;99.90
76787;DHT22;65739;51.482;5.702;2023-05-16T13:11:11;16.00;99.90
76787;DHT22;65739;51.482;5.702;2023-05-16T13:13:37;15.80;99.90
76787;DHT22;65739;51.482;5.702;2023-05-16T13:16:02;15.70;99.90
76787;DHT22;65739;51.482;5.702;2023-05-16T13:18:28;15.70;99.90
76787;DHT22;65739;51.482;5.702;2023-05-16T13:20:56;15.90;99.90
76787;DHT22;65739;51.482;5.702;2023-05-16T13:23:21;15.90;99.90
76787;DHT22;65739;51.482;5.702;2023-05-16T13:25:47;16.00;99.90
76787;DHT22;65739;51.482;5.702;2023-05-16T13:28:13;16.30;99.90
76787;DHT22;65739;51.482;5.702;2023-05-16T13:30:38;16.40;99.90
76787;DHT22;65739;51.482;5.702;2023-05-16T13:33:04;16.50;99.90
76787;DHT22;65739;51.482;5.702;2023-05-16T13:35:29;16.20;99.90
76787;DHT22;65739;51.482;5.702;2023-05-16T13:37:55;16.10;99.90
76787;DHT22;65739;51.482;5.702;2023-05-16T13:40:21;16.00;99.90
76787;DHT22;65739;51.482;5.702;2023-05-16T13:42:46;15.80;99.90
76787;DHT22;65739;51.482;5.702;2023-05-16T13:45:13;15.70;99.90
76787;DHT22;65739;51.482;5.702;2023-05-16T13:47:39;15.70;99.90
76787;DHT22;65739;51.482;5.702;2023-05-16T13:50:05;15.70;99.90
76787;DHT22;65739;51.482;5.702;2023-05-16T13:52:35;15.90;99.90
76787;DHT22;65739;51.482;5.702;2023-05-16T13:55:00;16.00;99.90
76787;DHT22;65739;51.482;5.702;2023-05-16T13:57:26;16.20;99.90
76787;DHT22;65739;51.482;5.702;2023-05-16T13:59:52;16.30;99.90
76787;DHT22;65739;51.482;5.702;2023-05-16T14:02:18;16.80;99.90
76787;DHT22;65739;51.482;5.702;2023-05-16T14:04:43;17.60;99.90
76787;DHT22;65739;51.482;5.702;2023-05-16T14:07:09;17.80;99.90
76787;DHT22;65739;51.482;5.702;2023-05-16T14:09:35;18.00;99.90
76787;DHT22;65739;51.482;5.702;2023-05-16T14:12:06;18.10;99.90
76787;DHT22;65739;51.482;5.702;2023-05-16T14:14:33;17.80;99.90
76787;DHT22;65739;51.482;5.702;2023-05-16T14:16:58;17.50;99.90
76787;DHT22;65739;51.482;5.702;2023-05-16T14:19:24;17.30;99.90
76787;DHT22;65739;51.482;5.702;2023-05-16T14:21:50;16.80;99.90
76787;DHT22;65739;51.482;5.702;2023-05-16T14:24:15;16.40;99.90
76787;DHT22;65739;51.482;5.702;2023-05-16T14:26:41;16.00;99.90
76787;DHT22;65739;51.482;5.702;2023-05-16T14:29:06;15.80;99.90
76787;DHT22;65739;51.482;5.702;2023-05-16T14:31:32;15.60;99.90
76787;DHT22;65739;51.482;5.702;2023-05-16T14:33:57;15.50;99.90
76787;DHT22;65739;51.482;5.702;2023-05-16T14:36:24;15.70;99.90
76787;DHT22;65739;51.482;5.702;2023-05-16T14:38:49;15.50;99.90
76787;DHT22;65739;51.482;5.702;2023-05-16T14:41:15;15.70;99.90
76787;DHT22;65739;51.482;5.702;2023-05-16T14:43:41;15.80;99.90
76787;DHT22;65739;51.482;5.702;2023-05-16T14:46:06;15.90;99.90
76787;DHT22;65739;51.482;5.702;2023-05-16T14:48:32;15.90;99.90
76787;DHT22;65739;51.482;5.702;2023-05-16T14:50:58;15.80;99.90
76787;DHT22;65739;51.482;5.702;2023-05-16T14:53:23;15.80;99.90
76787;DHT22;65739;51.482;5.702;2023-05-16T14:55:49;15.70;99.90
76787;DHT22;65739;51.482;5.702;2023-05-16T14:58:15;15.40;99.90
76787;DHT22;65739;51.482;5.702;2023-05-16T15:00:41;15.40;99.90
76787;DHT22;65739;51.482;5.702;2023-05-16T15:03:07;15.30;99.90
76787;DHT22;65739;51.482;5.702;2023-05-16T15:05:33;15.40;99.90
76787;DHT22;65739;51.482;5.702;2023-05-16T15:07:58;15.40;99.90
76787;DHT22;65739;51.482;5.702;2023-05-16T15:10:24;15.40;99.90
76787;DHT22;65739;51.482;5.702;2023-05-16T15:12:50;15.40;99.90
76787;DHT22;65739;51.482;5.702;2023-05-16T15:15:16;15.50;99.90
76787;DHT22;65739;51.482;5.702;2023-05-16T15:17:41;15.50;99.90
76787;DHT22;65739;51.482;5.702;2023-05-16T15:20:09;15.60;99.90
76787;DHT22;65739;51.482;5.702;2023-05-16T15:22:35;15.50;99.90
76787;DHT22;65739;51.482;5.702;2023-05-16T15:25:02;15.40;99.90
76787;DHT22;65739;51.482;5.702;2023-05-16T15:27:30;15.20;99.90
76787;DHT22;65739;51.482;5.702;2023-05-16T15:29:56;15.20;99.90
76787;DHT22;65739;51.482;5.702;2023-05-16T15:32:21;15.20;99.90
76787;DHT22;65739;51.482;5.702;2023-05-16T15:34:48;15.10;99.90
76787;DHT22;65739;51.482;5.702;2023-05-16T15:37:13;14.90;99.90
76787;DHT22;65739;51.482;5.702;2023-05-16T15:39:39;14.70;99.90
76787;DHT22;65739;51.482;5.702;2023-05-16T15:42:05;14.60;99.90
76787;DHT22;65739;51.482;5.702;2023-05-16T15:44:31;14.50;99.90
76787;DHT22;65739;51.482;5.702;2023-05-16T15:46:57;14.40;99.90
76787;DHT22;65739;51.482;5.702;2023-05-16T15:49:22;14.40;99.90
76787;DHT22;65739;51.482;5.702;2023-05-16T15:51:49;14.50;99.90
76787;DHT22;65739;51.482;5.702;2023-05-16T15:54:15;14.60;99.90
76787;DHT22;65739;51.482;5.702;2023-05-16T15:56:40;14.70;99.90
76787;DHT22;65739;51.482;5.702;2023-05-16T15:59:06;14.80;99.90
76787;DHT22;65739;51.482;5.702;2023-05-16T16:01:32;14.80;99.90
76787;DHT22;65739;51.482;5.702;2023-05-16T16:03:57;14.90;99.90
76787;DHT22;65739;51.482;5.702;2023-05-16T16:06:23;14.70;99.90
76787;DHT22;65739;51.482;5.702;2023-05-16T16:08:48;14.80;99.90
76787;DHT22;65739;51.482;5.702;2023-05-16T16:11:14;15.00;99.90